GTI8183 EDFH-EGSS
Flight info
| Callsign | GTI8183 |
|---|---|
| Flight time | N/A |
| Altitude | 32000 |
| Route | RUDOT2S/21 RUDOT Y180 BITBU Y181 DEMUL M624 BUB DCT KOZUF DCT IMPOH DCT SASKI L608 SUMUM Y6 TOSVA |
| Aircraft | B77L/H-SDE1E2E3FGHIJ2J3J4J5M1RWXY/LB1D1 |
Departure
| Time | 2026-04-30 21:10 |
|---|---|
| Airport | Frankfurt-Hahn Airport (EDFH) |
Arrival
| Time | N/A |
|---|---|
| Airport | London Stansted Airport (EGSS) |
| Time | Latitude | Longitude | Altitude | Speed | Heading |
|---|---|---|---|---|---|
| 2026-04-30 20:28 | 49.95209 | 7.27376 | 1614 ft | 0 kts | 122° |
| 2026-04-30 20:56 | 49.95209 | 7.27377 | 1614 ft | 0 kts | 122° |
| 2026-04-30 20:59 | 49.95210 | 7.27375 | 1614 ft | 1 kts | 122° |
| 2026-04-30 21:00 | 49.95226 | 7.27335 | 1615 ft | 2 kts | 122° |
| 2026-04-30 21:00 | 49.95242 | 7.27296 | 1615 ft | 2 kts | 113° |
| 2026-04-30 21:01 | 49.95242 | 7.27252 | 1616 ft | 2 kts | 65° |
| 2026-04-30 21:01 | 49.95234 | 7.27232 | 1616 ft | 2 kts | 43° |
| 2026-04-30 21:01 | 49.95216 | 7.27213 | 1616 ft | 1 kts | 31° |
| 2026-04-30 21:02 | 49.95216 | 7.27212 | 1616 ft | 0 kts | 32° |
| 2026-04-30 21:05 | 49.95217 | 7.27213 | 1616 ft | 0 kts | 32° |
| 2026-04-30 21:05 | 49.95226 | 7.27222 | 1616 ft | 2 kts | 32° |
| 2026-04-30 21:05 | 49.95244 | 7.27241 | 1616 ft | 3 kts | 33° |
| 2026-04-30 21:05 | 49.95274 | 7.27271 | 1615 ft | 6 kts | 33° |
| 2026-04-30 21:06 | 49.95314 | 7.27311 | 1614 ft | 7 kts | 33° |
| 2026-04-30 21:06 | 49.95363 | 7.27360 | 1613 ft | 8 kts | 32° |
| 2026-04-30 21:06 | 49.95408 | 7.27403 | 1612 ft | 7 kts | 32° |
| 2026-04-30 21:06 | 49.95457 | 7.27452 | 1611 ft | 8 kts | 32° |
| 2026-04-30 21:07 | 49.95511 | 7.27505 | 1610 ft | 9 kts | 31° |
| 2026-04-30 21:07 | 49.95567 | 7.27543 | 1609 ft | 7 kts | 6° |
| 2026-04-30 21:07 | 49.95617 | 7.27520 | 1609 ft | 8 kts | 327° |
| 2026-04-30 21:07 | 49.95675 | 7.27458 | 1608 ft | 11 kts | 324° |
| 2026-04-30 21:08 | 49.95717 | 7.27411 | 1608 ft | 6 kts | 320° |
| 2026-04-30 21:08 | 49.95746 | 7.27359 | 1608 ft | 5 kts | 303° |
| 2026-04-30 21:08 | 49.95761 | 7.27322 | 1608 ft | 4 kts | 302° |
| 2026-04-30 21:08 | 49.95766 | 7.27279 | 1608 ft | 3 kts | 249° |
| 2026-04-30 21:09 | 49.95744 | 7.27249 | 1608 ft | 4 kts | 209° |
| 2026-04-30 21:09 | 49.95721 | 7.27229 | 1608 ft | 7 kts | 210° |
| 2026-04-30 21:09 | 49.95634 | 7.27147 | 1610 ft | 25 kts | 212° |
| 2026-04-30 21:09 | 49.95267 | 7.26785 | 1622 ft | 99 kts | 212° |
| 2026-04-30 21:10 | 49.94483 | 7.26010 | 1647 ft | 165 kts | 212° |
| 2026-04-30 21:10 | 49.93375 | 7.24876 | 1803 ft | 209 kts | 207° |
| 2026-04-30 21:10 | 49.92188 | 7.23612 | 2566 ft | 213 kts | 205° |
| 2026-04-30 21:10 | 49.90952 | 7.22346 | 3537 ft | 217 kts | 204° |
| 2026-04-30 21:11 | 49.89691 | 7.21079 | 4229 ft | 227 kts | 204° |
| 2026-04-30 21:11 | 49.88337 | 7.19730 | 4838 ft | 234 kts | 205° |
| 2026-04-30 21:11 | 49.86979 | 7.18356 | 5623 ft | 234 kts | 206° |
| 2026-04-30 21:11 | 49.85648 | 7.16929 | 6347 ft | 241 kts | 218° |
| 2026-04-30 21:12 | 49.84677 | 7.14692 | 6706 ft | 269 kts | 249° |
| 2026-04-30 21:12 | 49.84500 | 7.11733 | 7144 ft | 288 kts | 281° |
| 2026-04-30 21:12 | 49.85265 | 7.08946 | 8094 ft | 279 kts | 309° |
| 2026-04-30 21:12 | 49.86681 | 7.07001 | 8821 ft | 275 kts | 336° |
| 2026-04-30 21:13 | 49.88468 | 7.06242 | 9481 ft | 269 kts | 5° |
| 2026-04-30 21:13 | 49.90331 | 7.06372 | 10210 ft | 269 kts | 2° |
| 2026-04-30 21:13 | 49.92197 | 7.06064 | 10929 ft | 274 kts | 353° |
| 2026-04-30 21:13 | 49.94028 | 7.05335 | 11613 ft | 280 kts | 342° |
| 2026-04-30 21:14 | 49.95779 | 7.03970 | 12319 ft | 286 kts | 329° |
| 2026-04-30 21:14 | 49.97357 | 7.01975 | 12757 ft | 304 kts | 316° |
| 2026-04-30 21:14 | 49.98668 | 6.99301 | 13157 ft | 322 kts | 301° |
| 2026-04-30 21:14 | 49.99506 | 6.96094 | 13907 ft | 326 kts | 285° |
| 2026-04-30 21:15 | 49.99770 | 6.92575 | 14646 ft | 331 kts | 269° |
| 2026-04-30 21:15 | 49.99612 | 6.88994 | 15370 ft | 336 kts | 264° |
| 2026-04-30 21:15 | 49.99352 | 6.85412 | 16016 ft | 344 kts | 264° |
| 2026-04-30 21:15 | 49.99139 | 6.81632 | 16421 ft | 361 kts | 266° |
| 2026-04-30 21:16 | 49.98985 | 6.77673 | 16840 ft | 377 kts | 268° |
| 2026-04-30 21:16 | 49.98848 | 6.73500 | 17270 ft | 393 kts | 268° |
| 2026-04-30 21:16 | 49.98712 | 6.69222 | 17714 ft | 408 kts | 268° |
| 2026-04-30 21:16 | 49.98572 | 6.64761 | 18153 ft | 423 kts | 268° |
| 2026-04-30 21:17 | 49.98428 | 6.60169 | 18698 ft | 435 kts | 268° |
| 2026-04-30 21:17 | 49.98278 | 6.55462 | 19479 ft | 440 kts | 268° |
| 2026-04-30 21:17 | 49.98126 | 6.50691 | 20407 ft | 442 kts | 268° |
| 2026-04-30 21:17 | 49.97975 | 6.45951 | 21182 ft | 447 kts | 268° |
| 2026-04-30 21:18 | 49.97818 | 6.41090 | 21963 ft | 451 kts | 268° |
| 2026-04-30 21:18 | 49.97659 | 6.36245 | 22728 ft | 455 kts | 268° |
| 2026-04-30 21:18 | 49.97498 | 6.31370 | 23433 ft | 459 kts | 267° |
| 2026-04-30 21:18 | 49.97331 | 6.26401 | 24103 ft | 464 kts | 267° |
| 2026-04-30 21:19 | 49.97161 | 6.21403 | 24764 ft | 468 kts | 267° |
| 2026-04-30 21:19 | 49.96986 | 6.16307 | 25427 ft | 472 kts | 267° |